Time;durP1;ratioP1;P1;durP2;ratioP2;P2;SDS_P1;SDS_P2;PMS_P1;PMS_P2;Temp;Humidity;BMP_temperature;BMP_pressure;BME280_temperature;BME280_humidity;BME280_pressure;Samples;Min_cycle;Max_cycle;Signal;HPM_P1;HPM_P2
2021/04/13 00:00:31;;;;;;;3.37;2.30;;;;;;;0.62;100.00;101928.63;5009168;28;20216;-70
2021/04/13 00:03:00;;;;;;;4.83;3.33;;;;;;;0.52;100.00;101924.84;5010353;28;20219;-71
2021/04/13 00:05:36;;;;;;;4.63;2.80;;;;;;;0.50;100.00;101930.75;5009723;28;20192;-71
2021/04/13 00:08:07;;;;;;;4.17;3.23;;;;;;;0.35;100.00;101931.06;5011672;28;20204;-71
2021/04/13 00:10:38;;;;;;;3.90;2.70;;;;;;;0.11;97.98;101931.91;5009997;28;20541;-71
2021/04/13 00:13:05;;;;;;;4.23;3.07;;;;;;;0.12;98.32;101936.22;5008074;28;20227;-71
2021/04/13 00:15:34;;;;;;;5.63;3.20;;;;;;;0.06;97.92;101927.44;5018309;28;20216;-71
2021/04/13 00:18:01;;;;;;;5.20;3.43;;;;;;;0.03;98.27;101925.59;5012264;28;20204;-69
2021/04/13 00:20:35;;;;;;;3.63;2.80;;;;;;;0.03;98.75;101928.16;5012011;28;20212;-69
2021/04/13 00:23:03;;;;;;;4.40;2.90;;;;;;;-0.02;99.08;101933.13;5017337;28;20192;-69
2021/04/13 00:25:36;;;;;;;6.70;3.53;;;;;;;-0.02;99.74;101932.25;5011362;28;20708;-69
2021/04/13 00:28:02;;;;;;;4.87;3.60;;;;;;;0.00;100.00;101938.34;5011482;28;20232;-69
2021/04/13 00:30:40;;;;;;;6.43;4.57;;;;;;;0.10;100.00;101937.84;5010268;28;20252;-69
2021/04/13 00:33:06;;;;;;;4.63;3.20;;;;;;;0.13;100.00;101940.53;5007991;28;20233;-71
2021/04/13 00:35:36;;;;;;;4.07;3.27;;;;;;;0.16;100.00;101935.50;5010580;28;20247;-72
2021/04/13 00:38:29;;;;;;;4.67;3.90;;;;;;;0.15;100.00;101941.44;5010741;28;20792;-71
2021/04/13 00:40:59;;;;;;;5.90;3.70;;;;;;;-0.01;100.00;101947.69;5011329;28;20205;-71
2021/04/13 00:43:27;;;;;;;4.77;3.07;;;;;;;-0.08;100.00;101938.00;5009356;28;20287;-71
2021/04/13 00:45:56;;;;;;;3.90;3.50;;;;;;;-0.02;100.00;101942.50;5009172;28;20250;-72
2021/04/13 00:48:27;;;;;;;5.30;3.50;;;;;;;-0.02;100.00;101940.84;5010267;28;20251;-71
2021/04/13 00:51:00;;;;;;;4.87;3.63;;;;;;;0.02;100.00;101946.94;5011602;28;20235;-71
2021/04/13 00:53:29;;;;;;;4.80;3.70;;;;;;;0.01;100.00;101941.75;5008996;28;20232;-72
2021/04/13 00:56:01;;;;;;;4.67;3.73;;;;;;;-0.06;100.00;101941.50;5029604;28;20216;-71
2021/04/13 00:58:31;;;;;;;6.60;3.27;;;;;;;-0.01;100.00;101937.44;5012285;28;20250;-71
2021/04/13 01:01:05;;;;;;;4.97;3.60;;;;;;;0.05;100.00;101946.19;5012892;28;20235;-71
2021/04/13 01:03:32;;;;;;;7.03;3.83;;;;;;;-0.09;100.00;101943.09;5002520;28;20226;-71
2021/04/13 01:05:59;;;;;;;5.97;3.60;;;;;;;-0.10;100.00;101936.22;4998974;28;20201;-71
2021/04/13 01:08:32;;;;;;;7.27;3.37;;;;;;;-0.23;100.00;101940.88;5002685;28;20224;-71
2021/04/13 01:11:04;;;;;;;5.80;4.00;;;;;;;-0.29;100.00;101940.63;5009921;28;20197;-72
2021/04/13 01:13:39;;;;;;;4.30;3.47;;;;;;;-0.21;100.00;101938.38;5010777;28;20197;-71
2021/04/13 01:16:42;;;;;;;5.63;4.23;;;;;;;-0.29;100.00;101937.19;5010948;28;20220;-71
2021/04/13 01:19:17;;;;;;;5.47;3.67;;;;;;;-0.39;100.00;101944.53;5015349;28;20278;-71
2021/04/13 01:21:54;;;;;;;5.77;3.90;;;;;;;-0.43;100.00;101939.22;5008124;28;20279;-71
2021/04/13 01:24:24;;;;;;;6.00;4.20;;;;;;;-0.40;100.00;101941.91;5013903;28;20203;-71
2021/04/13 01:26:53;;;;;;;5.73;3.73;;;;;;;-0.25;100.00;101933.94;5010728;28;20200;-72
2021/04/13 01:29:22;;;;;;;5.03;3.73;;;;;;;-0.40;100.00;101924.81;5010573;28;20212;-72
2021/04/13 01:31:53;;;;;;;4.10;3.50;;;;;;;-0.44;100.00;101934.88;5013033;28;20204;-69
2021/04/13 01:34:24;;;;;;;6.37;4.33;;;;;;;-0.44;100.00;101935.78;5017355;28;20244;-69
2021/04/13 01:37:03;;;;;;;8.27;4.30;;;;;;;-0.40;100.00;101937.63;5012617;28;20201;-69
2021/04/13 01:39:35;;;;;;;5.77;3.97;;;;;;;-0.43;100.00;101942.63;5008963;28;20676;-69
2021/04/13 01:42:01;;;;;;;4.77;3.80;;;;;;;-0.44;100.00;101942.56;5008345;28;20657;-69
2021/04/13 01:44:33;;;;;;;5.10;4.20;;;;;;;-0.60;100.00;101939.41;5012869;28;20546;-69
2021/04/13 01:47:01;;;;;;;5.53;3.83;;;;;;;-0.63;100.00;101939.28;5009849;28;20565;-69
2021/04/13 01:49:29;;;;;;;5.43;3.80;;;;;;;-0.75;100.00;101940.47;5011006;28;20227;-69
2021/04/13 01:51:55;;;;;;;3.97;3.03;;;;;;;-0.92;100.00;101944.88;5011676;28;20200;-69
2021/04/13 01:54:22;;;;;;;5.50;4.10;;;;;;;-0.65;100.00;101946.03;5012847;28;20226;-69
2021/04/13 01:57:00;;;;;;;6.07;4.40;;;;;;;-0.67;100.00;101945.09;5013770;28;20283;-69
2021/04/13 01:59:35;;;;;;;4.73;3.73;;;;;;;-0.71;100.00;101948.31;5016093;28;20534;-70
2021/04/13 02:02:10;;;;;;;4.63;3.50;;;;;;;-0.84;100.00;101951.22;5028866;28;20774;-71
2021/04/13 02:04:48;;;;;;;4.67;3.73;;;;;;;-0.76;100.00;101949.81;5016565;28;20192;-70
2021/04/13 02:07:36;;;;;;;5.80;3.90;;;;;;;-0.87;100.00;101949.38;5018778;28;20200;-70
2021/04/13 02:10:14;;;;;;;5.07;3.43;;;;;;;-0.96;100.00;101946.44;5012128;28;20216;-70
2021/04/13 02:12:44;;;;;;;5.57;3.80;;;;;;;-0.87;100.00;101946.81;5003653;28;20200;-68
2021/04/13 02:15:20;;;;;;;5.57;3.40;;;;;;;-0.88;100.00;101946.75;5016637;28;20926;-70
2021/04/13 02:17:52;;;;;;;4.97;3.47;;;;;;;-0.77;100.00;101943.84;5015457;28;20202;-71
2021/04/13 02:20:24;;;;;;;7.27;3.93;;;;;;;-0.90;100.00;101946.69;5015732;28;20251;-71
2021/04/13 02:22:51;;;;;;;5.40;3.80;;;;;;;-0.96;100.00;101943.88;5016273;28;20206;-68
2021/04/13 02:25:21;;;;;;;4.70;3.70;;;;;;;-1.04;100.00;101952.91;4999553;28;20683;-70
2021/04/13 02:27:49;;;;;;;7.30;3.93;;;;;;;-1.07;100.00;101956.22;5014369;28;20207;-70
2021/04/13 02:30:22;;;;;;;5.83;3.77;;;;;;;-1.13;100.00;101962.78;5017038;28;20224;-70
2021/04/13 02:32:51;;;;;;;4.23;3.50;;;;;;;-1.20;100.00;101962.50;4999371;28;20459;-70
2021/04/13 02:35:21;;;;;;;4.97;3.70;;;;;;;-1.03;100.00;101958.09;5017712;28;20219;-71
2021/04/13 02:37:50;;;;;;;6.37;3.97;;;;;;;-0.99;100.00;101962.53;5016593;28;20502;-72
2021/04/13 02:40:19;;;;;;;7.03;4.13;;;;;;;-1.14;100.00;101974.69;5016501;28;20505;-72
2021/04/13 02:42:47;;;;;;;6.37;4.47;;;;;;;-1.16;100.00;101966.09;5018865;28;20768;-73
2021/04/13 02:45:25;;;;;;;5.13;3.93;;;;;;;-1.28;100.00;101965.56;5016406;28;20465;-73
2021/04/13 02:47:57;;;;;;;4.97;3.70;;;;;;;-1.37;100.00;101964.34;5013173;28;20188;-72
2021/04/13 02:50:25;;;;;;;6.43;4.30;;;;;;;-1.33;100.00;101967.91;5017423;28;20477;-71
2021/04/13 02:52:53;;;;;;;5.47;4.10;;;;;;;-1.23;100.00;101964.03;5019907;28;20608;-72
2021/04/13 02:55:25;;;;;;;6.13;4.70;;;;;;;-1.42;100.00;101968.38;5027951;28;20230;-72
2021/04/13 02:57:53;;;;;;;5.77;4.33;;;;;;;-1.36;100.00;101968.63;5022649;28;20943;-72
2021/04/13 03:00:23;;;;;;;5.60;4.00;;;;;;;-1.35;100.00;101969.53;5018629;28;20565;-71
2021/04/13 03:02:54;;;;;;;6.63;3.97;;;;;;;-1.42;100.00;101970.94;5019466;28;20290;-73
2021/04/13 03:05:24;;;;;;;5.43;4.00;;;;;;;-1.38;100.00;101979.63;5001546;28;20489;-73
2021/04/13 03:07:52;;;;;;;7.43;4.30;;;;;;;-1.40;100.00;101976.13;5018206;28;20935;-72
2021/04/13 03:10:30;;;;;;;5.00;3.97;;;;;;;-1.35;100.00;101974.63;5017444;28;20495;-71
2021/04/13 03:13:00;;;;;;;6.47;4.20;;;;;;;-1.45;100.00;101970.78;5002326;28;20542;-72
2021/04/13 03:15:29;;;;;;;5.30;4.07;;;;;;;-1.48;100.00;101975.75;5019222;28;20986;-72
2021/04/13 03:17:59;;;;;;;5.13;4.10;;;;;;;-1.49;100.00;101981.69;5025538;28;20457;-73
2021/04/13 03:20:33;;;;;;;5.23;4.10;;;;;;;-1.34;100.00;101984.94;5020474;28;20470;-72
2021/04/13 03:23:02;;;;;;;5.80;4.17;;;;;;;-1.47;100.00;101984.34;5013169;28;20450;-72
2021/04/13 03:25:32;;;;;;;5.73;4.17;;;;;;;-1.46;100.00;101994.63;5016501;28;20496;-70
2021/04/13 03:28:01;;;;;;;7.83;4.63;;;;;;;-1.42;100.00;101995.66;5018780;28;20454;-73
2021/04/13 03:30:31;;;;;;;7.63;4.77;;;;;;;-1.40;100.00;101988.91;5019040;28;20470;-71
2021/04/13 03:33:01;;;;;;;6.17;4.20;;;;;;;-1.44;100.00;101989.56;5001254;28;20203;-73
2021/04/13 03:35:30;;;;;;;6.23;4.60;;;;;;;-1.53;100.00;101993.47;5016200;28;20566;-72
2021/04/13 03:37:59;;;;;;;6.40;4.37;;;;;;;-1.34;100.00;101992.63;5026463;28;20836;-73
2021/04/13 03:40:28;;;;;;;7.77;4.70;;;;;;;-1.47;100.00;101990.31;5020668;28;20490;-69
2021/04/13 03:42:59;;;;;;;6.87;4.87;;;;;;;-1.55;100.00;101997.66;5017653;28;20211;-73
2021/04/13 03:45:26;;;;;;;7.03;4.97;;;;;;;-1.48;100.00;102001.34;5002212;28;20451;-72
2021/04/13 03:47:53;;;;;;;6.80;5.13;;;;;;;-1.49;100.00;101998.75;5003849;28;20208;-73
2021/04/13 03:50:26;;;;;;;8.50;5.43;;;;;;;-1.41;100.00;102005.06;5018021;28;20474;-73
2021/04/13 03:53:02;;;;;;;8.83;5.57;;;;;;;-1.61;100.00;102006.72;5016111;28;20815;-72
2021/04/13 03:55:30;;;;;;;10.63;6.43;;;;;;;-1.74;100.00;102007.84;5000563;28;20527;-73
2021/04/13 03:57:56;;;;;;;9.83;6.53;;;;;;;-1.66;100.00;102003.06;4998718;28;20464;-72
2021/04/13 04:00:26;;;;;;;12.63;7.50;;;;;;;-1.72;100.00;102007.09;5016011;28;20483;-73
2021/04/13 04:02:52;;;;;;;11.27;7.43;;;;;;;-1.68;100.00;102007.25;4989682;28;20528;-73
2021/04/13 04:05:22;;;;;;;11.53;6.93;;;;;;;-1.66;100.00;102003.94;5015153;28;20462;-73
2021/04/13 04:07:53;;;;;;;11.57;7.00;;;;;;;-1.76;100.00;102010.34;5012092;28;20534;-71
2021/04/13 04:10:45;;;;;;;9.20;5.63;;;;;;;-1.76;100.00;102012.91;5016751;28;20467;-73
2021/04/13 04:13:23;;;;;;;8.50;5.63;;;;;;;-1.62;100.00;102004.97;5011934;28;20452;-71
2021/04/13 04:15:51;;;;;;;10.03;6.23;;;;;;;-1.78;100.00;102017.03;4996946;28;20474;-72
2021/04/13 04:18:27;;;;;;;8.67;5.60;;;;;;;-1.81;100.00;102019.47;5011348;28;20299;-72
2021/04/13 04:20:54;;;;;;;6.87;4.97;;;;;;;-1.57;100.00;102013.72;5016407;28;20822;-73
2021/04/13 04:23:26;;;;;;;8.23;5.30;;;;;;;-1.69;100.00;102013.16;5012017;28;20546;-73
2021/04/13 04:25:59;;;;;;;8.30;5.40;;;;;;;-1.75;100.00;102014.63;5012308;28;20242;-73
2021/04/13 04:28:29;;;;;;;6.97;4.87;;;;;;;-1.83;100.00;102013.41;5015368;28;20443;-72
2021/04/13 04:31:34;;;;;;;7.77;4.60;;;;;;;-1.80;100.00;102018.66;5014386;28;20522;-73
2021/04/13 04:34:00;;;;;;;7.13;5.03;;;;;;;-1.66;100.00;102021.84;4994295;28;20992;-71
2021/04/13 04:36:29;;;;;;;6.63;5.10;;;;;;;-1.64;100.00;102021.91;5014597;28;20303;-71
2021/04/13 04:38:55;;;;;;;7.83;4.97;;;;;;;-1.61;100.00;102017.81;5016634;28;20478;-72
2021/04/13 04:41:40;;;;;;;6.63;4.83;;;;;;;-1.45;100.00;102021.09;5010614;28;20502;-73
2021/04/13 04:44:06;;;;;;;6.47;4.93;;;;;;;-1.45;100.00;102024.50;5000864;28;20239;-73
2021/04/13 04:46:35;;;;;;;7.70;5.17;;;;;;;-1.22;100.00;102032.34;4998005;28;20250;-72
2021/04/13 04:49:04;;;;;;;7.67;5.07;;;;;;;-1.23;100.00;102039.16;4989949;28;20221;-72
2021/04/13 04:51:30;;;;;;;7.20;5.97;;;;;;;-1.31;100.00;102039.63;4995794;28;20214;-72
2021/04/13 04:53:56;;;;;;;9.50;6.00;;;;;;;-1.33;100.00;102027.63;4978632;28;20196;-74
2021/04/13 04:56:22;;;;;;;9.33;6.40;;;;;;;-1.23;100.00;102039.16;5002277;28;20224;-73
2021/04/13 04:58:49;;;;;;;7.67;5.90;;;;;;;-1.18;100.00;102041.91;5002533;28;20240;-72
2021/04/13 05:01:15;;;;;;;9.57;5.97;;;;;;;-1.15;100.00;102042.06;4994123;28;20209;-71
2021/04/13 05:03:42;;;;;;;11.00;6.50;;;;;;;-1.12;100.00;102039.63;4995891;28;20826;-73
2021/04/13 05:06:09;;;;;;;8.13;5.93;;;;;;;-1.03;100.00;102050.28;4993765;28;20264;-73
2021/04/13 05:08:35;;;;;;;10.03;6.60;;;;;;;-1.04;100.00;102055.31;4992708;28;20226;-73
2021/04/13 05:11:01;;;;;;;10.03;6.80;;;;;;;-0.93;100.00;102058.34;4993338;28;20569;-73
2021/04/13 05:13:27;;;;;;;9.03;7.33;;;;;;;-0.90;100.00;102061.06;4993240;28;20200;-74
2021/04/13 05:15:54;;;;;;;13.50;8.27;;;;;;;-0.88;100.00;102057.78;4994475;28;20217;-73
2021/04/13 05:18:20;;;;;;;17.67;10.53;;;;;;;-0.74;100.00;102062.59;4996931;28;20724;-73
2021/04/13 05:20:46;;;;;;;22.33;11.60;;;;;;;-0.67;100.00;102056.91;4991054;28;20226;-73
2021/04/13 05:23:13;;;;;;;11.60;7.43;;;;;;;-0.60;100.00;102056.38;4993331;28;20201;-73
2021/04/13 05:25:39;;;;;;;14.33;8.27;;;;;;;-0.55;100.00;102061.69;4997128;28;20281;-72
2021/04/13 05:28:05;;;;;;;14.23;8.17;;;;;;;-0.49;100.00;102065.41;4974879;28;20198;-73
2021/04/13 05:30:31;;;;;;;15.30;7.60;;;;;;;-0.40;100.00;102060.66;4994088;28;20289;-73
2021/04/13 05:32:58;;;;;;;11.77;7.97;;;;;;;-0.29;100.00;102057.66;4993958;28;20661;-72
2021/04/13 05:35:25;;;;;;;12.10;8.30;;;;;;;-0.17;100.00;102067.56;4995388;28;20216;-72
2021/04/13 05:37:51;;;;;;;12.33;7.37;;;;;;;-0.12;100.00;102060.91;4992361;28;20265;-73
2021/04/13 05:40:22;;;;;;;13.83;9.00;;;;;;;0.07;100.00;102065.97;4996479;28;20289;-72
2021/04/13 05:42:49;;;;;;;13.77;9.63;;;;;;;0.14;100.00;102062.84;4993433;28;20221;-72
2021/04/13 05:45:18;;;;;;;14.77;9.17;;;;;;;0.17;100.00;102068.06;5000405;28;20193;-72
2021/04/13 05:47:44;;;;;;;13.63;8.80;;;;;;;0.17;100.00;102083.47;4993878;28;20220;-73
2021/04/13 05:50:19;;;;;;;13.97;8.37;;;;;;;0.26;100.00;102074.38;4995517;28;20209;-72
2021/04/13 05:52:45;;;;;;;15.40;8.77;;;;;;;0.31;100.00;102073.75;4995522;28;20253;-76
2021/04/13 05:55:12;;;;;;;14.90;9.10;;;;;;;0.34;100.00;102078.13;4995416;28;20232;-73
2021/04/13 05:57:38;;;;;;;14.43;9.00;;;;;;;0.39;100.00;102081.75;4976477;28;20228;-73
2021/04/13 06:00:06;;;;;;;15.53;9.33;;;;;;;0.45;100.00;102081.97;4975442;28;20224;-72
2021/04/13 06:02:35;;;;;;;15.73;10.23;;;;;;;0.46;100.00;102078.63;5008964;28;20558;-73
2021/04/13 06:05:04;;;;;;;16.67;9.77;;;;;;;0.57;100.00;102081.59;4994070;28;20294;-71
2021/04/13 06:07:31;;;;;;;17.07;10.60;;;;;;;0.60;100.00;102084.28;4992265;28;20251;-72
2021/04/13 06:09:57;;;;;;;14.53;9.97;;;;;;;0.67;99.62;102078.56;4991002;28;20210;-73
2021/04/13 06:12:23;;;;;;;15.10;9.87;;;;;;;0.77;99.20;102094.31;4984699;28;20202;-73
2021/04/13 06:14:50;;;;;;;18.27;10.93;;;;;;;0.82;98.68;102085.94;4993240;28;20213;-73
2021/04/13 06:17:17;;;;;;;17.10;10.07;;;;;;;0.91;98.09;102101.69;4993996;28;20197;-73
2021/04/13 06:19:43;;;;;;;17.30;11.27;;;;;;;0.98;97.38;102101.94;4994725;28;20227;-73
2021/04/13 06:22:09;;;;;;;18.00;11.00;;;;;;;1.09;97.79;102098.94;4994168;28;20199;-73
2021/04/13 06:24:36;;;;;;;16.17;10.13;;;;;;;1.12;96.34;102099.03;4996312;28;20836;-70
2021/04/13 06:27:03;;;;;;;17.77;10.83;;;;;;;1.17;95.91;102103.47;4993142;28;20193;-70
2021/04/13 06:29:29;;;;;;;17.10;10.93;;;;;;;1.24;95.38;102110.59;4977198;28;20221;-70
2021/04/13 06:31:55;;;;;;;17.80;10.47;;;;;;;1.31;95.58;102103.13;4994907;28;20594;-70
2021/04/13 06:34:21;;;;;;;17.87;10.93;;;;;;;1.37;94.56;102111.88;4993717;28;20630;-71
2021/04/13 06:36:47;;;;;;;15.63;10.67;;;;;;;1.43;93.59;102109.56;4994053;28;20208;-71
2021/04/13 06:39:14;;;;;;;16.37;9.47;;;;;;;1.56;94.04;102098.84;4992442;28;20553;-70
2021/04/13 06:41:53;;;;;;;18.23;10.00;;;;;;;1.63;93.48;102098.25;4989400;28;20195;-69
2021/04/13 06:44:34;;;;;;;16.47;10.20;;;;;;;1.67;91.93;102105.25;4992430;28;20197;-70
2021/04/13 06:47:13;;;;;;;16.90;9.27;;;;;;;1.80;91.91;102115.97;4986096;28;20202;-70
2021/04/13 06:49:58;;;;;;;14.57;9.90;;;;;;;1.91;92.39;102108.59;4989584;28;20329;-71
2021/04/13 06:52:32;;;;;;;15.90;9.30;;;;;;;1.94;91.04;102112.16;4993978;28;20201;-70
2021/04/13 06:55:08;;;;;;;16.70;9.20;;;;;;;2.03;90.12;102120.16;4992531;28;20293;-71
2021/04/13 06:57:51;;;;;;;15.73;9.53;;;;;;;2.07;89.48;102115.97;4991470;28;20592;-68
2021/04/13 07:00:44;;;;;;;11.27;7.70;;;;;;;2.16;88.69;102123.13;4991791;28;20224;-70
2021/04/13 07:03:21;;;;;;;11.93;7.90;;;;;;;2.26;88.37;102126.03;4969453;28;20209;-70
2021/04/13 07:05:53;;;;;;;9.37;6.70;;;;;;;2.32;87.62;102124.50;4990942;28;20657;-71
2021/04/13 07:08:27;;;;;;;10.37;6.83;;;;;;;2.45;87.43;102124.94;4991523;28;20280;-70
2021/04/13 07:10:56;;;;;;;9.63;6.50;;;;;;;2.53;87.72;102117.44;4988116;28;20255;-71
2021/04/13 07:13:31;;;;;;;13.67;8.63;;;;;;;2.62;87.97;102119.41;4989528;28;21147;-68
2021/04/13 07:16:02;;;;;;;13.43;7.33;;;;;;;2.73;88.23;102107.75;4990098;28;20287;-70
2021/04/13 07:18:35;;;;;;;8.73;6.30;;;;;;;2.80;87.21;102114.81;4987491;28;20276;-71
2021/04/13 07:21:07;;;;;;;6.67;5.03;;;;;;;2.81;86.37;102118.28;4984101;28;20199;-70
2021/04/13 07:23:39;;;;;;;9.07;5.73;;;;;;;2.84;86.64;102110.63;4987242;28;20205;-70
2021/04/13 07:26:23;;;;;;;7.17;5.60;;;;;;;2.87;86.30;102113.31;4989390;28;20205;-71
2021/04/13 07:28:54;;;;;;;12.90;8.43;;;;;;;2.89;85.28;102114.22;4988609;28;20636;-69
2021/04/13 07:31:28;;;;;;;9.23;5.77;;;;;;;2.95;85.46;102110.94;4967724;28;20198;-68
2021/04/13 07:33:56;;;;;;;8.20;5.93;;;;;;;3.09;85.78;102114.78;4988177;28;20201;-71
2021/04/13 07:36:26;;;;;;;6.50;4.63;;;;;;;3.17;86.00;102123.63;4989325;28;20227;-70
2021/04/13 07:38:55;;;;;;;8.27;5.10;;;;;;;3.20;85.12;102117.66;4987901;28;20281;-70
2021/04/13 07:41:28;;;;;;;9.67;4.83;;;;;;;3.27;84.90;102117.00;4986518;28;20415;-70
2021/04/13 07:44:03;;;;;;;6.60;4.83;;;;;;;3.39;83.66;102127.69;4988189;28;20205;-69
2021/04/13 07:46:46;;;;;;;7.07;4.53;;;;;;;3.48;82.71;102129.63;4987814;28;20188;-70
2021/04/13 07:49:15;;;;;;;6.77;4.03;;;;;;;3.67;83.34;102125.81;4985778;28;20221;-71
2021/04/13 07:51:57;;;;;;;6.37;4.70;;;;;;;3.78;83.79;102124.41;4985635;28;20606;-71
2021/04/13 07:54:45;;;;;;;8.03;4.77;;;;;;;3.75;82.94;102123.47;4988798;28;20193;-69
2021/04/13 07:57:19;;;;;;;9.23;4.70;;;;;;;3.89;83.40;102121.25;4989050;28;20212;-70
2021/04/13 08:00:03;;;;;;;12.83;7.83;;;;;;;4.01;82.54;102125.81;4984802;28;20229;-70
2021/04/13 08:02:49;;;;;;;15.67;9.20;;;;;;;4.04;82.26;102123.31;4983231;28;20203;-70
2021/04/13 08:05:40;;;;;;;8.60;6.33;;;;;;;4.18;81.57;102137.44;4988233;28;20197;-71
2021/04/13 08:08:08;;;;;;;6.47;4.40;;;;;;;4.28;80.27;102126.50;4988830;28;20234;-72
2021/04/13 08:10:36;;;;;;;6.33;5.17;;;;;;;4.45;80.80;102126.00;4989209;28;20189;-70
2021/04/13 08:13:06;;;;;;;8.73;6.50;;;;;;;4.47;79.81;102127.81;4987128;28;20656;-69
2021/04/13 08:15:50;;;;;;;8.47;5.50;;;;;;;4.66;80.12;102135.94;4988234;28;20246;-69
2021/04/13 08:18:26;;;;;;;4.93;3.97;;;;;;;4.74;78.47;102143.03;4990212;28;20198;-69
2021/04/13 08:20:55;;;;;;;4.53;3.57;;;;;;;4.91;75.79;102150.31;4989672;28;20221;-69
2021/04/13 08:23:40;;;;;;;6.17;3.67;;;;;;;4.98;76.46;102151.28;4983460;28;20204;-70
2021/04/13 08:26:17;;;;;;;5.67;3.87;;;;;;;5.01;74.24;102152.22;4990244;28;20193;-69
2021/04/13 08:28:48;;;;;;;5.07;2.97;;;;;;;5.08;73.52;102150.66;4985846;28;20674;-69
2021/04/13 08:34:27;;;;;;;3.60;3.17;;;;;;;5.54;74.11;102138.66;4986174;28;20198;-69
2021/04/13 08:37:06;;;;;;;3.93;2.80;;;;;;;5.58;70.46;102145.63;4987816;28;20197;-69
2021/04/13 08:39:38;;;;;;;3.27;2.67;;;;;;;5.60;68.08;102146.50;4987884;28;20307;-69
2021/04/13 08:42:08;;;;;;;5.40;3.23;;;;;;;5.30;70.30;102136.44;4987644;28;20200;-70
2021/04/13 08:44:40;;;;;;;5.67;3.23;;;;;;;5.40;72.89;102132.31;4984890;28;20205;-69
2021/04/13 08:47:14;;;;;;;5.00;3.00;;;;;;;5.60;72.87;102128.41;4987817;28;20308;-69
2021/04/13 08:49:45;;;;;;;3.60;2.60;;;;;;;5.68;71.45;102129.41;4987684;28;20220;-70
2021/04/13 08:52:16;;;;;;;3.20;2.50;;;;;;;5.81;71.92;102129.63;4990052;28;20876;-70
2021/04/13 08:54:47;;;;;;;9.83;4.07;;;;;;;5.98;69.59;102142.88;4989894;28;20193;-69
2021/04/13 08:57:33;;;;;;;3.40;2.73;;;;;;;6.00;69.53;102143.81;4989513;28;20664;-70
2021/04/13 09:00:03;;;;;;;11.30;6.07;;;;;;;6.08;67.18;102152.56;4990842;28;20235;-70
2021/04/13 09:02:34;;;;;;;9.30;3.37;;;;;;;6.03;66.28;102149.91;4989541;28;20274;-71
2021/04/13 09:05:10;;;;;;;5.40;3.00;;;;;;;5.84;66.23;102151.28;4991917;28;20251;-71
2021/04/13 09:07:52;;;;;;;3.90;2.80;;;;;;;5.87;64.17;102156.50;4991980;28;20247;-71
2021/04/13 09:10:29;;;;;;;3.83;1.80;;;;;;;5.81;63.69;102158.13;4989310;28;20221;-70
2021/04/13 09:13:05;;;;;;;3.17;2.07;;;;;;;5.70;63.65;102155.31;4991337;28;20231;-72
2021/04/13 09:15:32;;;;;;;3.33;2.10;;;;;;;5.94;67.68;102148.84;4989160;28;20216;-71
2021/04/13 09:18:11;;;;;;;4.20;2.60;;;;;;;6.15;66.52;102149.22;4989061;28;20199;-70
2021/04/13 09:20:40;;;;;;;3.83;2.40;;;;;;;6.21;67.34;102146.75;4989968;28;20592;-71
2021/04/13 09:23:21;;;;;;;2.47;2.10;;;;;;;6.11;63.66;102152.63;4991442;28;20200;-72
2021/04/13 09:26:04;;;;;;;2.97;1.97;;;;;;;6.15;65.33;102140.59;4991224;28;20193;-72
2021/04/13 09:28:45;;;;;;;3.83;1.87;;;;;;;6.08;64.75;102134.44;4990219;28;20582;-70
2021/04/13 09:31:12;;;;;;;5.57;1.47;;;;;;;6.06;60.97;102159.44;4990625;28;20205;-71
2021/04/13 09:33:41;;;;;;;1.77;1.60;;;;;;;6.07;60.17;102151.69;4989848;28;20774;-71
2021/04/13 09:36:20;;;;;;;2.40;1.70;;;;;;;6.22;61.92;102148.47;4989604;28;20689;-70
2021/04/13 09:39:29;;;;;;;1.87;1.70;;;;;;;6.38;61.98;102138.38;4987787;28;20323;-69
2021/04/13 09:42:12;;;;;;;2.70;1.63;;;;;;;6.57;63.56;102126.56;4988926;28;20193;-69
2021/04/13 09:44:53;;;;;;;2.47;1.83;;;;;;;6.75;60.56;102146.69;4984550;28;20201;-69
2021/04/13 09:47:32;;;;;;;2.57;1.67;;;;;;;6.75;60.50;102137.16;4986911;28;20267;-70
2021/04/13 09:50:10;;;;;;;1.57;1.37;;;;;;;6.78;57.27;102138.94;4987173;28;20563;-70
2021/04/13 09:53:07;;;;;;;2.87;1.60;;;;;;;6.82;58.02;102143.31;4988417;28;20280;-70
2021/04/13 09:55:47;;;;;;;1.70;1.50;;;;;;;6.81;58.28;102139.84;4985466;28;20233;-70
2021/04/13 09:58:53;;;;;;;2.93;1.60;;;;;;;6.98;58.40;102136.59;4985254;28;20264;-69
2021/04/13 10:01:35;;;;;;;1.97;1.67;;;;;;;7.37;61.64;102130.19;4979705;28;20204;-70
2021/04/13 10:04:21;;;;;;;2.13;1.40;;;;;;;7.43;59.70;102121.59;4986236;28;20597;-70
2021/04/13 10:07:02;;;;;;;1.57;1.40;;;;;;;7.52;58.99;102129.47;4987406;28;20224;-70
2021/04/13 10:09:38;;;;;;;1.90;1.50;;;;;;;7.61;57.90;102132.16;4988007;28;20225;-70
2021/04/13 10:12:34;;;;;;;1.63;1.13;;;;;;;7.56;54.70;102131.22;4985472;28;20229;-70
2021/04/13 10:15:36;;;;;;;2.00;1.60;;;;;;;7.56;56.26;102123.44;4977982;28;20832;-70
2021/04/13 10:18:39;;;;;;;1.70;1.57;;;;;;;7.92;57.67;102119.47;4985106;28;20205;-70
2021/04/13 10:21:18;;;;;;;1.40;1.30;;;;;;;7.94;56.77;102117.75;4982727;28;20297;-70
2021/04/13 10:24:11;;;;;;;2.50;1.47;;;;;;;7.84;55.99;102131.50;4991785;28;20207;-70
2021/04/13 10:27:12;;;;;;;3.10;1.60;;;;;;;7.80;55.61;102111.56;4987760;28;20281;-70
2021/04/13 10:30:10;;;;;;;3.30;1.60;;;;;;;7.80;56.33;102119.34;4956846;28;20225;-70
2021/04/13 10:32:57;;;;;;;1.83;1.30;;;;;;;7.68;52.94;102120.09;5005190;28;20197;-70
2021/04/13 10:36:08;;;;;;;2.27;1.30;;;;;;;7.50;51.75;102123.38;4985183;28;20706;-69
2021/04/13 10:39:13;;;;;;;3.40;1.87;;;;;;;7.52;53.73;102117.34;4985324;28;20221;-69
2021/04/13 10:42:17;;;;;;;2.10;1.33;;;;;;;7.53;53.22;102115.66;4986575;28;20209;-70
2021/04/13 10:45:16;;;;;;;2.23;1.67;;;;;;;7.82;54.34;102094.28;4985327;28;20201;-70
2021/04/13 10:48:42;;;;;;;1.80;1.53;;;;;;;8.17;55.54;102091.09;4982278;28;20217;-71
2021/04/13 10:51:32;;;;;;;2.47;2.00;;;;;;;8.39;52.71;102095.56;4982788;28;20194;-70
2021/04/13 10:54:46;;;;;;;3.00;2.07;;;;;;;8.44;54.29;102096.50;4986201;28;20236;-70
2021/04/13 10:57:48;;;;;;;2.27;1.30;;;;;;;8.20;49.30;102102.38;4952037;28;20287;-70
2021/04/13 11:00:34;;;;;;;1.20;1.10;;;;;;;8.18;49.31;102105.81;4984514;28;20309;-70
2021/04/13 11:03:40;;;;;;;1.83;1.40;;;;;;;8.23;50.94;102097.19;4981152;28;20202;-70
2021/04/13 11:06:50;;;;;;;1.80;1.37;;;;;;;8.21;53.36;102092.84;4981701;28;20793;-70
2021/04/13 11:09:38;;;;;;;1.93;1.73;;;;;;;8.09;52.71;102102.28;4983926;28;20225;-70
2021/04/13 11:12:21;;;;;;;1.47;1.30;;;;;;;8.12;51.13;102097.09;4988095;28;20251;-69
2021/04/13 11:15:21;;;;;;;3.20;1.60;;;;;;;8.23;49.08;102092.00;4983179;28;20207;-70
2021/04/13 11:18:11;;;;;;;1.87;1.40;;;;;;;8.32;50.95;102083.41;4984551;28;20757;-70
2021/04/13 11:21:13;;;;;;;2.80;1.93;;;;;;;8.62;48.75;102087.03;4985463;28;20190;-70
2021/04/13 11:23:54;;;;;;;2.93;1.50;;;;;;;8.66;48.68;102088.81;4984089;28;20210;-71
2021/04/13 11:27:11;;;;;;;1.93;1.47;;;;;;;8.58;52.40;102072.31;4986999;28;20190;-71
2021/04/13 11:29:57;;;;;;;2.47;1.87;;;;;;;8.78;51.98;102078.47;4986140;28;20259;-70
2021/04/13 11:32:45;;;;;;;2.60;1.83;;;;;;;9.17;52.85;102068.22;4986839;28;20200;-71
2021/04/13 11:35:20;;;;;;;2.03;1.80;;;;;;;9.10;49.10;102081.19;4987965;28;20291;-72
2021/04/13 11:38:35;;;;;;;1.83;1.70;;;;;;;9.41;54.18;102065.66;4984433;28;20204;-70
2021/04/13 11:41:31;;;;;;;1.90;1.50;;;;;;;9.27;51.27;102069.97;4964484;28;20584;-71
2021/04/13 11:44:00;;;;;;;2.20;1.47;;;;;;;9.00;50.71;102073.34;4980655;28;20596;-72
2021/04/13 11:46:40;;;;;;;1.97;1.40;;;;;;;8.79;49.56;102075.00;4986554;28;20204;-69
2021/04/13 11:49:12;;;;;;;1.70;1.30;;;;;;;8.59;51.33;102072.31;4985978;28;20217;-72
2021/04/13 11:51:49;;;;;;;4.23;1.60;;;;;;;8.53;53.31;102074.88;4990923;28;20205;-71
2021/04/13 11:54:43;;;;;;;2.90;1.70;;;;;;;8.62;51.60;102077.53;4989160;28;20189;-70
2021/04/13 11:57:16;;;;;;;1.57;1.33;;;;;;;8.52;53.35;102066.22;4974004;28;20232;-71
2021/04/13 11:59:42;;;;;;;1.80;1.40;;;;;;;8.67;53.84;102064.53;4984269;28;20749;-70
2021/04/13 12:02:26;;;;;;;1.50;1.40;;;;;;;8.77;56.32;102058.53;4978539;28;20193;-70
2021/04/13 12:04:55;;;;;;;2.73;1.50;;;;;;;8.56;53.22;102067.09;4984902;28;20289;-71